createdAt,value
2023-04-21T00:01:55.109Z,91.00
2023-04-21T00:04:22.629Z,91.10
2023-04-21T00:06:50.566Z,91.00
2023-04-21T00:09:18.706Z,91.40
2023-04-21T00:11:46.019Z,91.60
2023-04-21T00:14:12.916Z,91.40
2023-04-21T00:16:39.715Z,91.70
2023-04-21T00:19:07.373Z,91.60
2023-04-21T00:21:35.316Z,91.30
2023-04-21T00:24:02.713Z,90.70
2023-04-21T00:26:29.895Z,90.80
2023-04-21T00:28:56.675Z,91.20
2023-04-21T00:31:23.766Z,90.90
2023-04-21T00:33:50.643Z,91.30
2023-04-21T00:36:17.602Z,91.00
2023-04-21T00:38:45.020Z,91.20
2023-04-21T00:41:11.770Z,91.50
2023-04-21T00:43:58.441Z,91.40
2023-04-21T00:46:25.623Z,91.10
2023-04-21T00:48:52.357Z,91.40
2023-04-21T00:51:19.921Z,91.50
2023-04-21T00:53:47.352Z,91.00
2023-04-21T00:56:14.579Z,90.80
2023-04-21T00:58:42.896Z,91.00
2023-04-21T01:01:09.661Z,91.10
2023-04-21T01:03:36.596Z,91.50
2023-04-21T01:06:03.674Z,91.30
2023-04-21T01:08:31.227Z,91.10
2023-04-21T01:10:57.976Z,91.10
2023-04-21T01:13:25.762Z,91.20
2023-04-21T01:15:52.563Z,91.40
2023-04-21T01:18:19.502Z,91.50
2023-04-21T01:20:46.526Z,91.00
2023-04-21T01:23:13.211Z,91.60
2023-04-21T01:25:41.941Z,91.10
2023-04-21T01:28:08.649Z,90.90
2023-04-21T01:30:35.516Z,91.10
2023-04-21T01:33:02.476Z,91.40
2023-04-21T01:35:29.906Z,91.40
2023-04-21T01:37:56.706Z,91.10
2023-04-21T01:40:23.674Z,90.90
2023-04-21T01:42:50.500Z,91.20
2023-04-21T01:45:19.229Z,92.60
2023-04-21T01:47:46.284Z,93.30
2023-04-21T01:50:14.406Z,92.40
2023-04-21T01:52:41.850Z,92.40
2023-04-21T01:55:09.237Z,91.60
2023-04-21T01:57:36.396Z,91.20
2023-04-21T02:00:04.769Z,91.90
2023-04-21T02:02:31.969Z,92.10
2023-04-21T02:05:00.902Z,92.30
2023-04-21T02:07:28.484Z,92.30
2023-04-21T02:09:55.272Z,92.20
2023-04-21T02:12:22.491Z,92.20
2023-04-21T02:14:49.470Z,92.30
2023-04-21T02:17:17.466Z,92.30
2023-04-21T02:19:45.451Z,91.80
2023-04-21T02:22:12.945Z,90.80
2023-04-21T02:24:39.921Z,90.40
2023-04-21T02:27:07.021Z,89.90
2023-04-21T02:29:33.938Z,90.90
2023-04-21T02:32:07.815Z,91.70
2023-04-21T02:34:44.840Z,93.10
2023-04-21T02:37:11.759Z,93.20
2023-04-21T02:39:38.697Z,93.10
2023-04-21T02:42:05.496Z,91.90
2023-04-21T02:44:33.406Z,91.70
2023-04-21T02:47:00.508Z,92.00
2023-04-21T02:49:27.488Z,91.30
2023-04-21T02:51:55.133Z,91.80
2023-04-21T02:54:21.906Z,91.80
2023-04-21T02:56:49.418Z,92.30
2023-04-21T02:59:16.881Z,92.70
2023-04-21T03:01:44.223Z,92.60
2023-04-21T03:04:11.067Z,92.90
2023-04-21T03:06:37.916Z,92.70
2023-04-21T03:09:04.851Z,92.50
2023-04-21T03:11:31.946Z,91.80
2023-04-21T03:13:58.717Z,91.60
2023-04-21T03:16:25.741Z,91.40
2023-04-21T03:18:52.530Z,91.70
2023-04-21T03:21:19.303Z,91.80
2023-04-21T03:23:46.017Z,92.30
2023-04-21T03:26:12.811Z,92.80
2023-04-21T03:28:39.528Z,92.70
2023-04-21T03:31:06.292Z,92.50
2023-04-21T03:33:33.422Z,92.20
2023-04-21T03:36:00.482Z,91.90
2023-04-21T03:38:29.215Z,91.90
2023-04-21T03:40:55.958Z,92.00
2023-04-21T03:43:23.283Z,92.10
2023-04-21T03:45:50.152Z,92.00
2023-04-21T03:48:16.960Z,92.00
2023-04-21T03:50:43.732Z,91.90
2023-04-21T03:53:10.791Z,92.30
2023-04-21T03:55:38.261Z,92.70
2023-04-21T03:58:05.541Z,92.70
2023-04-21T04:00:32.253Z,92.70
2023-04-21T04:02:59.159Z,92.90
2023-04-21T04:05:26.481Z,92.60
2023-04-21T04:07:53.326Z,92.80
2023-04-21T04:10:21.023Z,93.00
2023-04-21T04:12:48.053Z,92.80
2023-04-21T04:15:15.699Z,92.90
2023-04-21T04:17:42.927Z,92.90
2023-04-21T04:20:09.871Z,93.00
2023-04-21T04:22:37.210Z,93.10
2023-04-21T04:25:05.239Z,93.20
2023-04-21T04:27:32.390Z,93.20
2023-04-21T04:29:59.247Z,92.80
2023-04-21T04:32:29.252Z,92.60
2023-04-21T04:34:56.224Z,92.20
2023-04-21T04:37:22.999Z,92.00
2023-04-21T04:39:53.235Z,91.50
2023-04-21T04:42:20.326Z,91.70
2023-04-21T04:44:48.134Z,91.90
2023-04-21T04:47:15.343Z,92.00
2023-04-21T04:49:42.449Z,91.90
2023-04-21T04:52:09.249Z,91.80
2023-04-21T04:54:36.312Z,92.00
2023-04-21T04:57:03.313Z,91.90
2023-04-21T04:59:31.003Z,92.20
2023-04-21T05:01:58.180Z,92.10
2023-04-21T05:04:26.241Z,92.30
2023-04-21T05:06:53.601Z,92.00
2023-04-21T05:09:20.706Z,92.00
2023-04-21T05:11:47.883Z,92.00
2023-04-21T05:14:16.205Z,92.00
2023-04-21T05:16:46.157Z,92.20
2023-04-21T05:19:12.932Z,92.40
2023-04-21T05:21:39.748Z,92.30
2023-04-21T05:24:06.735Z,92.10
2023-04-21T05:26:33.446Z,92.50
2023-04-21T05:29:00.256Z,92.60
2023-04-21T05:31:27.242Z,92.60
2023-04-21T05:33:54.047Z,92.60
2023-04-21T05:36:20.801Z,92.60
2023-04-21T05:38:47.637Z,92.70
2023-04-21T05:41:15.119Z,92.60
2023-04-21T05:43:41.919Z,92.60
2023-04-21T05:46:10.924Z,92.60
2023-04-21T05:48:37.712Z,92.60
2023-04-21T05:51:11.455Z,92.60
2023-04-21T05:53:42.895Z,92.70
2023-04-21T05:56:11.346Z,92.60
2023-04-21T05:58:38.818Z,92.30
2023-04-21T06:01:06.480Z,92.20
2023-04-21T06:03:33.773Z,92.20
2023-04-21T06:06:02.585Z,92.10
2023-04-21T06:08:29.769Z,92.30
2023-04-21T06:10:56.592Z,92.50
2023-04-21T06:13:23.405Z,92.30
2023-04-21T06:15:50.138Z,92.40
2023-04-21T06:18:17.108Z,92.60
2023-04-21T06:20:50.914Z,92.50
2023-04-21T06:23:17.963Z,92.60
2023-04-21T06:25:44.844Z,92.90
2023-04-21T06:28:11.645Z,93.00
2023-04-21T06:30:38.363Z,93.10
2023-04-21T06:33:06.661Z,93.00
2023-04-21T06:35:34.094Z,93.00
2023-04-21T06:38:01.007Z,92.80
2023-04-21T06:40:27.761Z,93.00
2023-04-21T06:42:54.501Z,92.90
2023-04-21T06:45:22.190Z,92.70
2023-04-21T06:47:49.043Z,92.70
2023-04-21T06:50:16.360Z,92.30
2023-04-21T06:52:43.201Z,91.90
2023-04-21T06:55:10.326Z,91.20
2023-04-21T06:57:37.755Z,90.60
2023-04-21T07:00:05.935Z,90.00
2023-04-21T07:02:32.925Z,89.60
2023-04-21T07:05:01.217Z,89.90
2023-04-21T07:07:28.029Z,88.90
2023-04-21T07:09:54.830Z,88.40
2023-04-21T07:12:21.877Z,88.40
2023-04-21T07:14:48.696Z,89.00
2023-04-21T07:17:15.615Z,87.80
2023-04-21T07:19:42.489Z,87.60
2023-04-21T07:22:09.225Z,87.90
2023-04-21T07:24:37.326Z,86.40
2023-04-21T07:27:04.320Z,85.90
2023-04-21T07:29:31.893Z,85.60
2023-04-21T07:31:58.884Z,84.30
2023-04-21T07:34:25.848Z,82.90
2023-04-21T07:36:54.813Z,81.80
2023-04-21T07:39:22.675Z,81.40
2023-04-21T07:41:49.614Z,81.00
2023-04-21T07:44:16.407Z,80.60
2023-04-21T07:46:43.828Z,79.90
2023-04-21T07:49:10.927Z,78.90
2023-04-21T07:51:37.705Z,79.70
2023-04-21T07:54:04.749Z,79.40
2023-04-21T07:56:31.772Z,79.20
2023-04-21T07:58:58.557Z,77.50
2023-04-21T08:01:25.559Z,76.50
2023-04-21T08:03:52.468Z,76.20
2023-04-21T08:06:20.243Z,75.30
2023-04-21T08:08:48.330Z,76.10
2023-04-21T08:11:15.334Z,75.20
2023-04-21T08:13:42.090Z,74.40
2023-04-21T08:16:09.191Z,73.70
2023-04-21T08:18:36.605Z,75.50
2023-04-21T08:21:03.425Z,74.90
2023-04-21T08:23:33.421Z,73.90
2023-04-21T08:26:01.990Z,74.50
2023-04-21T08:28:29.201Z,74.10
2023-04-21T08:30:55.902Z,72.90
2023-04-21T08:33:23.054Z,69.70
2023-04-21T08:36:02.504Z,72.30
2023-04-21T08:38:33.264Z,71.60
2023-04-21T08:41:00.612Z,71.30
2023-04-21T08:43:29.076Z,70.50
2023-04-21T08:45:56.310Z,71.00
2023-04-21T08:48:25.011Z,71.10
2023-04-21T08:50:53.640Z,72.70
2023-04-21T08:53:20.966Z,70.20
2023-04-21T08:56:03.125Z,68.60
2023-04-21T08:58:36.955Z,69.70
2023-04-21T09:01:03.809Z,69.00
2023-04-21T09:03:31.323Z,69.30
2023-04-21T09:06:05.461Z,68.90
2023-04-21T09:08:33.414Z,69.00
2023-04-21T09:11:01.437Z,68.60
2023-04-21T09:13:36.326Z,68.00
2023-04-21T09:16:08.570Z,66.70
2023-04-21T09:18:40.167Z,67.70
2023-04-21T09:21:10.025Z,67.60
2023-04-21T09:23:41.487Z,67.10
2023-04-21T09:26:09.432Z,65.60
2023-04-21T09:28:37.335Z,64.00
2023-04-21T09:31:04.655Z,65.20
2023-04-21T09:33:45.728Z,64.50
2023-04-21T09:36:24.754Z,66.60
2023-04-21T09:39:03.720Z,63.80
2023-04-21T09:41:43.398Z,63.60
2023-04-21T09:44:10.144Z,65.10
2023-04-21T09:46:37.628Z,64.00
2023-04-21T09:49:06.388Z,64.90
2023-04-21T09:54:28.417Z,66.30
2023-04-21T09:57:02.245Z,64.50
2023-04-21T09:59:36.961Z,65.30
2023-04-21T10:02:07.094Z,66.80
2023-04-21T10:04:36.252Z,67.40
2023-04-21T10:07:03.598Z,67.80
2023-04-21T10:09:57.911Z,67.80
2023-04-21T10:12:25.905Z,68.90
2023-04-21T10:14:53.832Z,66.90
2023-04-21T10:17:24.865Z,68.00
2023-04-21T10:19:57.549Z,68.80
2023-04-21T10:22:34.690Z,67.10
2023-04-21T10:25:03.814Z,66.10
2023-04-21T10:27:38.846Z,67.70
2023-04-21T10:30:20.100Z,66.40
2023-04-21T10:32:47.285Z,69.20
2023-04-21T10:35:23.081Z,66.10
2023-04-21T10:37:53.901Z,65.00
2023-04-21T10:40:43.223Z,67.60
2023-04-21T10:43:42.721Z,64.70
2023-04-21T10:46:31.959Z,63.50
2023-04-21T10:49:06.950Z,62.90
2023-04-21T10:51:54.076Z,63.70
2023-04-21T10:54:27.787Z,62.80
2023-04-21T10:56:59.225Z,65.60
2023-04-21T10:59:29.152Z,62.60
2023-04-21T11:01:56.065Z,64.30
2023-04-21T11:04:24.121Z,61.60
2023-04-21T11:07:19.161Z,63.60
2023-04-21T11:09:48.060Z,62.80
2023-04-21T11:12:18.920Z,62.20
2023-04-21T11:14:48.057Z,65.30
2023-04-21T11:17:19.927Z,62.00
2023-04-21T11:19:49.579Z,62.20
2023-04-21T11:22:18.099Z,58.10
2023-04-21T11:24:46.565Z,54.70
2023-04-21T11:27:17.810Z,54.00
2023-04-21T11:29:47.394Z,55.80
2023-04-21T11:32:15.346Z,53.60
2023-04-21T11:34:42.620Z,56.10
2023-04-21T11:37:16.876Z,54.70
2023-04-21T11:39:44.302Z,55.50
2023-04-21T11:42:14.128Z,54.80
2023-04-21T11:44:43.179Z,54.90
2023-04-21T11:47:29.057Z,54.50
2023-04-21T11:49:58.207Z,55.50
2023-04-21T11:52:26.550Z,54.00
2023-04-21T11:55:01.925Z,52.80
2023-04-21T11:57:31.192Z,51.90
2023-04-21T12:00:16.177Z,52.70
2023-04-21T12:02:43.870Z,55.60
2023-04-21T12:05:12.616Z,53.00
2023-04-21T12:07:43.250Z,53.40
2023-04-21T12:10:16.697Z,50.20
2023-04-21T12:12:43.630Z,50.40
2023-04-21T12:15:12.783Z,48.60
2023-04-21T12:17:48.055Z,47.50
2023-04-21T12:20:19.798Z,48.50
2023-04-21T12:22:47.572Z,48.60
2023-04-21T12:25:14.894Z,47.80
2023-04-21T12:27:49.372Z,45.80
2023-04-21T12:30:17.014Z,44.90
2023-04-21T12:32:43.869Z,45.70
2023-04-21T12:35:11.262Z,46.00
2023-04-21T12:37:38.295Z,41.30
2023-04-21T12:40:05.716Z,45.70
2023-04-21T12:42:34.269Z,44.20
2023-04-21T12:45:03.112Z,42.90
2023-04-21T12:47:31.452Z,37.50
2023-04-21T12:49:58.206Z,37.30
2023-04-21T12:52:26.133Z,37.30
2023-04-21T12:54:52.910Z,38.40
2023-04-21T12:57:20.962Z,37.20
2023-04-21T12:59:48.276Z,37.20
2023-04-21T13:02:15.355Z,37.10
2023-04-21T13:04:42.607Z,37.90
2023-04-21T13:07:09.811Z,40.00
2023-04-21T13:09:36.580Z,39.30
2023-04-21T13:12:03.851Z,39.00
2023-04-21T13:14:30.712Z,39.20
2023-04-21T13:16:57.614Z,36.30
2023-04-21T13:19:24.925Z,37.80
2023-04-21T13:21:54.212Z,37.80
2023-04-21T13:24:21.772Z,36.00
2023-04-21T13:26:48.809Z,37.50
2023-04-21T13:29:16.020Z,35.90
2023-04-21T13:31:43.098Z,35.40
2023-04-21T13:34:10.393Z,35.00
2023-04-21T13:36:37.238Z,32.30
2023-04-21T13:39:05.529Z,32.70
2023-04-21T13:41:32.503Z,33.10
2023-04-21T13:43:59.351Z,32.20
2023-04-21T13:46:26.217Z,33.10
2023-04-21T13:48:53.111Z,31.40
2023-04-21T13:51:20.921Z,33.00
2023-04-21T13:53:48.003Z,33.20
2023-04-21T13:56:15.680Z,33.20
2023-04-21T13:58:43.121Z,32.60
2023-04-21T14:01:09.919Z,33.00
2023-04-21T14:03:36.835Z,33.00
2023-04-21T14:06:04.230Z,31.90
2023-04-21T14:08:31.331Z,30.40
2023-04-21T14:10:58.404Z,30.20
2023-04-21T14:13:36.076Z,31.40
2023-04-21T14:16:04.870Z,31.00
2023-04-21T14:18:33.507Z,29.90
2023-04-21T14:21:00.460Z,29.60
2023-04-21T14:23:27.242Z,30.00
2023-04-21T14:25:55.117Z,29.90
2023-04-21T14:28:22.714Z,31.80
2023-04-21T14:30:49.458Z,29.40
2023-04-21T14:33:16.298Z,31.20
2023-04-21T14:35:43.114Z,32.20
2023-04-21T14:38:10.360Z,31.30
2023-04-21T14:40:37.126Z,29.70
2023-04-21T14:43:04.102Z,33.00
2023-04-21T14:45:31.029Z,35.00
2023-04-21T14:47:58.396Z,34.90
2023-04-21T14:50:25.261Z,36.80
2023-04-21T14:52:52.015Z,37.90
2023-04-21T14:55:19.134Z,33.10
2023-04-21T14:57:47.309Z,33.50
2023-04-21T15:00:15.301Z,33.00
2023-04-21T15:02:42.649Z,36.60
2023-04-21T15:05:10.109Z,32.80
2023-04-21T15:07:37.005Z,33.80
2023-04-21T15:10:04.036Z,34.30
2023-04-21T15:12:30.840Z,31.40
2023-04-21T15:14:57.578Z,31.20
2023-04-21T15:17:24.378Z,29.00
2023-04-21T15:19:51.503Z,29.70
2023-04-21T15:22:19.095Z,30.30
2023-04-21T15:24:46.302Z,31.70
2023-04-21T15:27:13.044Z,30.50
2023-04-21T15:29:40.001Z,32.80
2023-04-21T15:32:06.757Z,38.10
2023-04-21T15:34:33.496Z,37.50
2023-04-21T15:37:00.669Z,40.10
2023-04-21T15:39:27.469Z,39.40
2023-04-21T15:42:00.366Z,37.00
2023-04-21T15:44:27.287Z,34.40
2023-04-21T15:46:55.388Z,37.00
2023-04-21T15:49:24.504Z,38.40
2023-04-21T15:51:52.718Z,38.90
2023-04-21T15:54:19.509Z,38.70
2023-04-21T15:56:46.242Z,40.00
2023-04-21T15:59:13.100Z,41.40
2023-04-21T16:01:40.115Z,43.60
2023-04-21T16:04:07.303Z,43.50
2023-04-21T16:06:34.942Z,43.20
2023-04-21T16:09:01.855Z,44.70
2023-04-21T16:11:29.313Z,45.60
2023-04-21T16:13:56.516Z,45.60
2023-04-21T16:16:23.920Z,46.20
2023-04-21T16:18:51.074Z,47.80
2023-04-21T16:21:17.910Z,47.30
2023-04-21T16:23:45.335Z,47.90
2023-04-21T16:26:12.212Z,47.50
2023-04-21T16:28:38.966Z,49.30
2023-04-21T16:31:05.832Z,48.60
2023-04-21T16:33:32.712Z,48.70
2023-04-21T16:35:59.431Z,48.20
2023-04-21T16:38:26.195Z,48.70
2023-04-21T16:40:52.955Z,48.20
2023-04-21T16:43:19.696Z,48.50
2023-04-21T16:45:46.762Z,48.10
2023-04-21T16:48:13.784Z,49.10
2023-04-21T16:50:41.893Z,49.40
2023-04-21T16:53:09.103Z,50.10
2023-04-21T16:55:37.147Z,49.20
2023-04-21T16:58:04.088Z,50.40
2023-04-21T17:00:30.870Z,51.10
2023-04-21T17:02:57.835Z,50.60
2023-04-21T17:05:24.779Z,49.30
2023-04-21T17:07:51.570Z,50.40
2023-04-21T17:10:18.730Z,50.20
2023-04-21T17:12:46.199Z,50.50
2023-04-21T17:15:13.498Z,51.70
2023-04-21T17:17:43.015Z,50.00
2023-04-21T17:20:12.003Z,49.60
2023-04-21T17:22:39.572Z,49.80
2023-04-21T17:25:07.304Z,49.40
2023-04-21T17:27:36.537Z,49.50
2023-04-21T17:30:04.786Z,49.60
2023-04-21T17:32:33.655Z,50.00
2023-04-21T17:35:02.914Z,49.50
2023-04-21T17:37:30.508Z,48.80
2023-04-21T17:39:59.794Z,48.10
2023-04-21T17:42:29.282Z,47.30
2023-04-21T17:44:56.043Z,48.40
2023-04-21T17:47:22.967Z,48.20
2023-04-21T17:49:49.793Z,48.90
2023-04-21T17:52:17.267Z,48.90
2023-04-21T17:54:44.293Z,50.00
2023-04-21T17:57:11.802Z,51.00
2023-04-21T17:59:39.219Z,52.50
2023-04-21T18:02:06.755Z,52.80
2023-04-21T18:04:34.545Z,53.10
2023-04-21T18:07:02.240Z,53.80
2023-04-21T18:09:29.117Z,55.40
2023-04-21T18:11:57.008Z,54.50
2023-04-21T18:14:24.544Z,54.80
2023-04-21T18:16:51.453Z,56.00
2023-04-21T18:19:18.466Z,55.50
2023-04-21T18:21:45.763Z,56.40
2023-04-21T18:24:12.556Z,56.10
2023-04-21T18:26:39.448Z,57.30
2023-04-21T18:29:06.273Z,58.00
2023-04-21T18:31:33.525Z,56.80
2023-04-21T18:34:00.681Z,57.20
2023-04-21T18:36:30.009Z,57.30
2023-04-21T18:38:58.628Z,57.60
2023-04-21T18:41:27.405Z,59.00
2023-04-21T18:43:54.471Z,60.60
2023-04-21T18:46:22.062Z,60.60
2023-04-21T18:48:49.009Z,61.00
2023-04-21T18:51:15.947Z,60.90
2023-04-21T18:53:43.281Z,60.20
2023-04-21T18:56:10.687Z,60.10
2023-04-21T18:58:37.653Z,60.20
2023-04-21T19:01:04.617Z,60.70
2023-04-21T19:03:31.779Z,61.70
2023-04-21T19:05:58.861Z,61.50
2023-04-21T19:08:40.753Z,61.50
2023-04-21T19:11:10.076Z,62.10
2023-04-21T19:13:37.288Z,61.90
2023-04-21T19:16:04.993Z,62.40
2023-04-21T19:18:32.065Z,62.10
2023-04-21T19:20:59.152Z,62.10
2023-04-21T19:23:25.931Z,61.80
2023-04-21T19:25:55.001Z,61.90
2023-04-21T19:28:21.797Z,63.10
2023-04-21T19:30:48.936Z,62.90
2023-04-21T19:33:16.285Z,63.20
2023-04-21T19:35:43.264Z,63.70
2023-04-21T19:38:10.348Z,64.30
2023-04-21T19:40:37.221Z,64.20
2023-04-21T19:43:04.796Z,64.20
2023-04-21T19:45:32.084Z,64.00
2023-04-21T19:47:58.879Z,64.20
2023-04-21T19:50:25.851Z,65.10
2023-04-21T19:52:52.702Z,66.00
2023-04-21T19:55:19.512Z,66.20
2023-04-21T19:57:46.512Z,66.50
2023-04-21T20:00:14.135Z,66.90
2023-04-21T20:02:41.179Z,66.80
2023-04-21T20:05:09.301Z,67.00
2023-04-21T20:07:37.165Z,67.40
2023-04-21T20:10:06.238Z,67.90
2023-04-21T20:12:33.718Z,69.00
2023-04-21T20:15:01.212Z,70.30
2023-04-21T20:17:28.949Z,71.00
2023-04-21T20:19:55.867Z,72.10
2023-04-21T20:22:22.856Z,73.00
2023-04-21T20:24:52.065Z,74.10
2023-04-21T20:27:19.458Z,74.70
2023-04-21T20:29:46.876Z,76.10
2023-04-21T20:32:14.278Z,76.10
2023-04-21T20:34:41.395Z,76.00
2023-04-21T20:37:10.600Z,76.80
2023-04-21T20:39:41.381Z,77.00
2023-04-21T20:42:12.985Z,76.90
2023-04-21T20:44:42.098Z,76.40
2023-04-21T20:47:10.723Z,76.50
2023-04-21T20:49:38.237Z,76.90
2023-04-21T20:52:05.658Z,77.90
2023-04-21T20:54:34.619Z,78.00
2023-04-21T20:57:02.195Z,79.00
2023-04-21T20:59:29.128Z,79.30
2023-04-21T21:01:55.925Z,78.90
2023-04-21T21:04:23.081Z,78.80
2023-04-21T21:06:50.046Z,79.40
2023-04-21T21:09:18.778Z,78.90
2023-04-21T21:11:45.708Z,78.30
2023-04-21T21:14:13.243Z,78.50
2023-04-21T21:16:40.403Z,79.60
2023-04-21T21:19:07.269Z,80.00
2023-04-21T21:21:34.047Z,80.90
2023-04-21T21:24:00.791Z,82.10
2023-04-21T21:26:27.639Z,81.50
2023-04-21T21:28:54.371Z,81.90
2023-04-21T21:31:21.598Z,81.90
2023-04-21T21:33:48.593Z,81.70
2023-04-21T21:36:15.528Z,82.30
2023-04-21T21:38:42.389Z,82.60
2023-04-21T21:41:12.085Z,82.30
2023-04-21T21:43:38.969Z,82.20
2023-04-21T21:46:06.256Z,82.40
2023-04-21T21:48:33.060Z,82.10
2023-04-21T21:50:59.806Z,82.70
2023-04-21T21:53:27.378Z,82.20
2023-04-21T21:55:54.199Z,83.20
2023-04-21T21:58:21.883Z,83.20
2023-04-21T22:00:51.851Z,84.20
2023-04-21T22:03:19.728Z,84.00
2023-04-21T22:05:47.135Z,83.90
2023-04-21T22:08:15.656Z,82.90
2023-04-21T22:10:46.054Z,83.00
2023-04-21T22:13:13.155Z,83.30
2023-04-21T22:15:39.938Z,82.70
2023-04-21T22:18:07.952Z,83.50
2023-04-21T22:20:34.848Z,83.20
2023-04-21T22:23:01.623Z,84.00
2023-04-21T22:25:28.778Z,83.60
2023-04-21T22:27:58.655Z,83.40
2023-04-21T22:30:25.919Z,82.30
2023-04-21T22:32:52.979Z,82.60
2023-04-21T22:35:19.920Z,83.60
2023-04-21T22:37:47.277Z,84.00
2023-04-21T22:40:14.241Z,84.40
2023-04-21T22:42:41.096Z,84.80
2023-04-21T22:45:08.367Z,83.80
2023-04-21T22:47:35.304Z,84.10
2023-04-21T22:50:02.283Z,84.20
2023-04-21T22:52:30.164Z,84.50
2023-04-21T22:54:56.872Z,83.90
2023-04-21T22:57:23.826Z,83.30
2023-04-21T22:59:50.648Z,84.70
2023-04-21T23:02:17.536Z,85.50
2023-04-21T23:04:44.422Z,85.40
2023-04-21T23:07:11.176Z,86.10
2023-04-21T23:09:38.290Z,85.50
2023-04-21T23:12:06.148Z,85.30
2023-04-21T23:14:33.078Z,86.10
2023-04-21T23:16:59.929Z,86.50
2023-04-21T23:19:26.937Z,83.60
2023-04-21T23:21:53.775Z,85.80
2023-04-21T23:24:20.560Z,87.00
2023-04-21T23:26:47.735Z,88.30
2023-04-21T23:29:14.687Z,87.60
2023-04-21T23:31:41.497Z,87.90
2023-04-21T23:34:08.495Z,85.60
2023-04-21T23:36:35.803Z,85.30
2023-04-21T23:39:02.565Z,84.90
2023-04-21T23:41:29.578Z,86.40
2023-04-21T23:43:56.314Z,87.10
2023-04-21T23:46:23.075Z,87.50
2023-04-21T23:48:50.241Z,87.00
2023-04-21T23:51:17.093Z,87.30
2023-04-21T23:53:43.949Z,86.50
2023-04-21T23:56:10.777Z,87.00
2023-04-21T23:58:37.953Z,86.90
